sensor_id;sensor_type;location;lat;lon;timestamp;P1;durP1;ratioP1;P2;durP2;ratioP2
48853;SDS011;34673;52.808;17.856;2023-06-10T00:01:19;11.40;;;4.50;;
48853;SDS011;34673;52.808;17.856;2023-06-10T00:03:47;8.57;;;4.78;;
48853;SDS011;34673;52.808;17.856;2023-06-10T00:06:14;11.73;;;5.18;;
48853;SDS011;34673;52.808;17.856;2023-06-10T00:08:42;8.15;;;4.30;;
48853;SDS011;34673;52.808;17.856;2023-06-10T00:11:09;8.48;;;4.75;;
48853;SDS011;34673;52.808;17.856;2023-06-10T00:13:37;8.90;;;4.90;;
48853;SDS011;34673;52.808;17.856;2023-06-10T00:16:04;12.23;;;5.40;;
48853;SDS011;34673;52.808;17.856;2023-06-10T00:18:31;8.10;;;4.70;;
48853;SDS011;34673;52.808;17.856;2023-06-10T00:20:58;10.02;;;5.15;;
48853;SDS011;34673;52.808;17.856;2023-06-10T00:23:31;8.75;;;4.72;;
48853;SDS011;34673;52.808;17.856;2023-06-10T00:25:58;8.85;;;5.00;;
48853;SDS011;34673;52.808;17.856;2023-06-10T00:28:26;9.90;;;4.85;;
48853;SDS011;34673;52.808;17.856;2023-06-10T00:30:55;8.35;;;4.65;;
48853;SDS011;34673;52.808;17.856;2023-06-10T00:33:22;7.63;;;4.35;;
48853;SDS011;34673;52.808;17.856;2023-06-10T00:35:49;12.15;;;4.75;;
48853;SDS011;34673;52.808;17.856;2023-06-10T00:38:16;8.27;;;4.50;;
48853;SDS011;34673;52.808;17.856;2023-06-10T00:40:44;10.00;;;5.07;;
48853;SDS011;34673;52.808;17.856;2023-06-10T00:43:11;12.73;;;4.90;;
48853;SDS011;34673;52.808;17.856;2023-06-10T00:45:39;8.50;;;5.22;;
48853;SDS011;34673;52.808;17.856;2023-06-10T00:48:06;9.25;;;4.53;;
48853;SDS011;34673;52.808;17.856;2023-06-10T00:50:35;7.00;;;4.55;;
48853;SDS011;34673;52.808;17.856;2023-06-10T00:53:05;7.40;;;4.30;;
48853;SDS011;34673;52.808;17.856;2023-06-10T00:55:35;8.93;;;4.87;;
48853;SDS011;34673;52.808;17.856;2023-06-10T00:58:03;8.82;;;4.70;;
48853;SDS011;34673;52.808;17.856;2023-06-10T01:00:31;11.98;;;4.88;;
48853;SDS011;34673;52.808;17.856;2023-06-10T01:03:00;11.98;;;5.57;;
48853;SDS011;34673;52.808;17.856;2023-06-10T01:05:28;10.23;;;4.93;;
48853;SDS011;34673;52.808;17.856;2023-06-10T01:10:24;8.18;;;4.57;;
48853;SDS011;34673;52.808;17.856;2023-06-10T01:12:59;9.50;;;5.03;;
48853;SDS011;34673;52.808;17.856;2023-06-10T01:15:34;11.50;;;5.28;;
48853;SDS011;34673;52.808;17.856;2023-06-10T01:18:05;12.50;;;5.10;;
48853;SDS011;34673;52.808;17.856;2023-06-10T01:20:42;12.52;;;5.32;;
48853;SDS011;34673;52.808;17.856;2023-06-10T01:23:10;9.50;;;4.28;;
48853;SDS011;34673;52.808;17.856;2023-06-10T01:25:39;9.30;;;4.72;;
48853;SDS011;34673;52.808;17.856;2023-06-10T01:28:18;20.08;;;4.80;;
48853;SDS011;34673;52.808;17.856;2023-06-10T01:33:17;10.90;;;5.00;;
48853;SDS011;34673;52.808;17.856;2023-06-10T01:35:47;13.90;;;5.90;;
48853;SDS011;34673;52.808;17.856;2023-06-10T01:38:16;14.32;;;5.25;;
48853;SDS011;34673;52.808;17.856;2023-06-10T01:40:48;18.05;;;4.68;;
48853;SDS011;34673;52.808;17.856;2023-06-10T01:43:16;12.90;;;4.72;;
48853;SDS011;34673;52.808;17.856;2023-06-10T01:45:44;11.05;;;4.90;;
48853;SDS011;34673;52.808;17.856;2023-06-10T01:48:11;7.78;;;4.88;;
48853;SDS011;34673;52.808;17.856;2023-06-10T01:50:38;11.02;;;4.90;;
48853;SDS011;34673;52.808;17.856;2023-06-10T01:53:06;12.00;;;5.28;;
48853;SDS011;34673;52.808;17.856;2023-06-10T01:55:33;13.20;;;5.13;;
48853;SDS011;34673;52.808;17.856;2023-06-10T01:58:00;16.85;;;5.18;;
48853;SDS011;34673;52.808;17.856;2023-06-10T02:00:27;9.40;;;5.00;;
48853;SDS011;34673;52.808;17.856;2023-06-10T02:02:55;14.52;;;5.85;;
48853;SDS011;34673;52.808;17.856;2023-06-10T02:05:22;10.98;;;5.30;;
48853;SDS011;34673;52.808;17.856;2023-06-10T02:07:49;12.68;;;4.90;;
48853;SDS011;34673;52.808;17.856;2023-06-10T02:10:17;14.35;;;5.18;;
48853;SDS011;34673;52.808;17.856;2023-06-10T02:12:44;10.98;;;5.00;;
48853;SDS011;34673;52.808;17.856;2023-06-10T02:15:12;11.70;;;4.97;;
48853;SDS011;34673;52.808;17.856;2023-06-10T02:17:39;10.32;;;5.55;;
48853;SDS011;34673;52.808;17.856;2023-06-10T02:20:06;10.07;;;5.10;;
48853;SDS011;34673;52.808;17.856;2023-06-10T02:22:35;10.27;;;5.53;;
48853;SDS011;34673;52.808;17.856;2023-06-10T02:25:02;11.02;;;5.40;;
48853;SDS011;34673;52.808;17.856;2023-06-10T02:27:30;9.07;;;5.57;;
48853;SDS011;34673;52.808;17.856;2023-06-10T02:29:58;7.28;;;5.10;;
48853;SDS011;34673;52.808;17.856;2023-06-10T02:32:25;11.05;;;5.93;;
48853;SDS011;34673;52.808;17.856;2023-06-10T02:34:52;8.48;;;5.10;;
48853;SDS011;34673;52.808;17.856;2023-06-10T02:37:22;9.55;;;4.70;;
48853;SDS011;34673;52.808;17.856;2023-06-10T02:39:49;7.50;;;5.20;;
48853;SDS011;34673;52.808;17.856;2023-06-10T02:42:17;9.85;;;5.20;;
48853;SDS011;34673;52.808;17.856;2023-06-10T02:44:44;11.30;;;5.25;;
48853;SDS011;34673;52.808;17.856;2023-06-10T02:47:16;9.38;;;5.30;;
48853;SDS011;34673;52.808;17.856;2023-06-10T02:49:44;11.10;;;5.25;;
48853;SDS011;34673;52.808;17.856;2023-06-10T02:52:11;10.65;;;5.47;;
48853;SDS011;34673;52.808;17.856;2023-06-10T02:54:39;8.35;;;5.00;;
48853;SDS011;34673;52.808;17.856;2023-06-10T02:57:08;10.45;;;5.65;;
48853;SDS011;34673;52.808;17.856;2023-06-10T02:59:36;11.18;;;5.45;;
48853;SDS011;34673;52.808;17.856;2023-06-10T03:02:04;7.63;;;4.88;;
48853;SDS011;34673;52.808;17.856;2023-06-10T03:04:38;7.75;;;5.40;;
48853;SDS011;34673;52.808;17.856;2023-06-10T03:07:10;10.05;;;5.15;;
48853;SDS011;34673;52.808;17.856;2023-06-10T03:09:37;9.25;;;5.00;;
48853;SDS011;34673;52.808;17.856;2023-06-10T03:12:08;10.05;;;5.47;;
48853;SDS011;34673;52.808;17.856;2023-06-10T03:14:42;9.45;;;5.55;;
48853;SDS011;34673;52.808;17.856;2023-06-10T03:17:09;9.40;;;4.85;;
48853;SDS011;34673;52.808;17.856;2023-06-10T03:19:40;8.57;;;5.38;;
48853;SDS011;34673;52.808;17.856;2023-06-10T03:22:08;9.18;;;5.30;;
48853;SDS011;34673;52.808;17.856;2023-06-10T03:24:40;11.75;;;5.03;;
48853;SDS011;34673;52.808;17.856;2023-06-10T03:27:09;9.25;;;4.97;;
48853;SDS011;34673;52.808;17.856;2023-06-10T03:29:39;9.38;;;4.40;;
48853;SDS011;34673;52.808;17.856;2023-06-10T03:32:07;10.85;;;4.95;;
48853;SDS011;34673;52.808;17.856;2023-06-10T03:34:36;10.43;;;4.40;;
48853;SDS011;34673;52.808;17.856;2023-06-10T03:37:04;14.02;;;5.00;;
48853;SDS011;34673;52.808;17.856;2023-06-10T03:39:32;7.63;;;4.95;;
48853;SDS011;34673;52.808;17.856;2023-06-10T03:42:01;12.32;;;4.65;;
48853;SDS011;34673;52.808;17.856;2023-06-10T03:44:30;10.05;;;5.03;;
48853;SDS011;34673;52.808;17.856;2023-06-10T03:46:57;15.10;;;5.65;;
48853;SDS011;34673;52.808;17.856;2023-06-10T03:49:25;11.18;;;4.95;;
48853;SDS011;34673;52.808;17.856;2023-06-10T03:51:58;8.95;;;4.90;;
48853;SDS011;34673;52.808;17.856;2023-06-10T03:54:26;10.10;;;5.03;;
48853;SDS011;34673;52.808;17.856;2023-06-10T03:56:53;11.52;;;5.00;;
48853;SDS011;34673;52.808;17.856;2023-06-10T03:59:20;8.50;;;5.40;;
48853;SDS011;34673;52.808;17.856;2023-06-10T04:01:47;14.02;;;5.07;;
48853;SDS011;34673;52.808;17.856;2023-06-10T04:04:14;10.30;;;4.82;;
48853;SDS011;34673;52.808;17.856;2023-06-10T04:06:45;10.18;;;4.65;;
48853;SDS011;34673;52.808;17.856;2023-06-10T04:09:13;11.43;;;5.00;;
48853;SDS011;34673;52.808;17.856;2023-06-10T04:11:41;13.82;;;5.18;;
48853;SDS011;34673;52.808;17.856;2023-06-10T04:14:08;10.20;;;5.22;;
48853;SDS011;34673;52.808;17.856;2023-06-10T04:16:37;11.80;;;4.72;;
48853;SDS011;34673;52.808;17.856;2023-06-10T04:19:05;12.35;;;5.10;;
48853;SDS011;34673;52.808;17.856;2023-06-10T04:21:32;8.40;;;4.60;;
48853;SDS011;34673;52.808;17.856;2023-06-10T04:23:59;10.20;;;4.93;;
48853;SDS011;34673;52.808;17.856;2023-06-10T04:26:27;10.90;;;4.60;;
48853;SDS011;34673;52.808;17.856;2023-06-10T04:28:54;8.20;;;4.60;;
48853;SDS011;34673;52.808;17.856;2023-06-10T04:31:22;10.27;;;5.00;;
48853;SDS011;34673;52.808;17.856;2023-06-10T04:33:50;11.13;;;4.80;;
48853;SDS011;34673;52.808;17.856;2023-06-10T04:36:17;9.82;;;4.72;;
48853;SDS011;34673;52.808;17.856;2023-06-10T04:38:44;10.35;;;4.57;;
48853;SDS011;34673;52.808;17.856;2023-06-10T04:41:12;13.88;;;4.72;;
48853;SDS011;34673;52.808;17.856;2023-06-10T04:43:40;10.43;;;4.93;;
48853;SDS011;34673;52.808;17.856;2023-06-10T04:46:07;8.90;;;4.68;;
48853;SDS011;34673;52.808;17.856;2023-06-10T04:48:35;11.38;;;5.00;;
48853;SDS011;34673;52.808;17.856;2023-06-10T04:51:03;7.90;;;4.60;;
48853;SDS011;34673;52.808;17.856;2023-06-10T04:53:32;8.73;;;4.88;;
48853;SDS011;34673;52.808;17.856;2023-06-10T04:55:59;7.88;;;4.55;;
48853;SDS011;34673;52.808;17.856;2023-06-10T04:58:26;8.65;;;4.45;;
48853;SDS011;34673;52.808;17.856;2023-06-10T05:00:53;11.02;;;5.18;;
48853;SDS011;34673;52.808;17.856;2023-06-10T05:03:20;8.13;;;4.60;;
48853;SDS011;34673;52.808;17.856;2023-06-10T05:05:48;13.48;;;4.60;;
48853;SDS011;34673;52.808;17.856;2023-06-10T05:08:15;9.93;;;4.75;;
48853;SDS011;34673;52.808;17.856;2023-06-10T05:10:42;8.43;;;4.80;;
48853;SDS011;34673;52.808;17.856;2023-06-10T05:13:09;10.20;;;5.00;;
48853;SDS011;34673;52.808;17.856;2023-06-10T05:15:37;9.13;;;5.20;;
48853;SDS011;34673;52.808;17.856;2023-06-10T05:18:04;8.15;;;4.72;;
48853;SDS011;34673;52.808;17.856;2023-06-10T05:20:31;10.07;;;4.50;;
48853;SDS011;34673;52.808;17.856;2023-06-10T05:22:58;6.30;;;4.20;;
48853;SDS011;34673;52.808;17.856;2023-06-10T05:25:26;8.07;;;4.40;;
48853;SDS011;34673;52.808;17.856;2023-06-10T05:27:57;8.75;;;4.88;;
48853;SDS011;34673;52.808;17.856;2023-06-10T05:30:24;9.20;;;4.25;;
48853;SDS011;34673;52.808;17.856;2023-06-10T05:32:52;11.18;;;4.40;;
48853;SDS011;34673;52.808;17.856;2023-06-10T05:35:19;13.55;;;4.30;;
48853;SDS011;34673;52.808;17.856;2023-06-10T05:37:46;8.13;;;4.25;;
48853;SDS011;34673;52.808;17.856;2023-06-10T05:40:14;8.95;;;4.20;;
48853;SDS011;34673;52.808;17.856;2023-06-10T05:42:41;10.90;;;4.78;;
48853;SDS011;34673;52.808;17.856;2023-06-10T05:45:08;10.63;;;3.97;;
48853;SDS011;34673;52.808;17.856;2023-06-10T05:47:36;8.00;;;3.95;;
48853;SDS011;34673;52.808;17.856;2023-06-10T05:50:03;10.73;;;4.72;;
48853;SDS011;34673;52.808;17.856;2023-06-10T05:52:34;9.73;;;4.20;;
48853;SDS011;34673;52.808;17.856;2023-06-10T05:55:07;11.32;;;4.10;;
48853;SDS011;34673;52.808;17.856;2023-06-10T05:57:34;12.07;;;3.95;;
48853;SDS011;34673;52.808;17.856;2023-06-10T06:00:02;8.93;;;3.80;;
48853;SDS011;34673;52.808;17.856;2023-06-10T06:02:37;9.27;;;4.20;;
48853;SDS011;34673;52.808;17.856;2023-06-10T06:05:05;6.07;;;3.65;;
48853;SDS011;34673;52.808;17.856;2023-06-10T06:07:33;11.98;;;4.18;;
48853;SDS011;34673;52.808;17.856;2023-06-10T06:10:00;8.05;;;4.22;;
48853;SDS011;34673;52.808;17.856;2023-06-10T06:12:27;12.57;;;4.20;;
48853;SDS011;34673;52.808;17.856;2023-06-10T06:14:54;10.75;;;4.53;;
48853;SDS011;34673;52.808;17.856;2023-06-10T06:17:21;12.90;;;4.53;;
48853;SDS011;34673;52.808;17.856;2023-06-10T06:19:49;8.35;;;4.32;;
48853;SDS011;34673;52.808;17.856;2023-06-10T06:22:16;10.07;;;4.30;;
48853;SDS011;34673;52.808;17.856;2023-06-10T06:24:47;10.65;;;4.00;;
48853;SDS011;34673;52.808;17.856;2023-06-10T06:27:14;8.48;;;4.13;;
48853;SDS011;34673;52.808;17.856;2023-06-10T06:29:42;9.00;;;3.60;;
48853;SDS011;34673;52.808;17.856;2023-06-10T06:32:10;8.05;;;3.83;;
48853;SDS011;34673;52.808;17.856;2023-06-10T06:34:37;9.55;;;4.07;;
48853;SDS011;34673;52.808;17.856;2023-06-10T06:37:04;11.30;;;4.00;;
48853;SDS011;34673;52.808;17.856;2023-06-10T06:39:34;7.82;;;3.72;;
48853;SDS011;34673;52.808;17.856;2023-06-10T06:42:01;8.65;;;3.88;;
48853;SDS011;34673;52.808;17.856;2023-06-10T06:44:46;9.40;;;4.28;;
48853;SDS011;34673;52.808;17.856;2023-06-10T06:47:13;11.65;;;3.72;;
48853;SDS011;34673;52.808;17.856;2023-06-10T06:49:41;8.60;;;3.55;;
48853;SDS011;34673;52.808;17.856;2023-06-10T06:52:08;7.72;;;3.70;;
48853;SDS011;34673;52.808;17.856;2023-06-10T06:54:35;10.35;;;4.05;;
48853;SDS011;34673;52.808;17.856;2023-06-10T06:57:03;11.18;;;4.05;;
48853;SDS011;34673;52.808;17.856;2023-06-10T06:59:30;8.73;;;3.72;;
48853;SDS011;34673;52.808;17.856;2023-06-10T07:01:57;16.95;;;4.65;;
48853;SDS011;34673;52.808;17.856;2023-06-10T07:04:24;7.50;;;4.00;;
48853;SDS011;34673;52.808;17.856;2023-06-10T07:06:51;8.52;;;4.10;;
48853;SDS011;34673;52.808;17.856;2023-06-10T07:09:19;14.27;;;3.65;;
48853;SDS011;34673;52.808;17.856;2023-06-10T07:11:46;8.00;;;3.53;;
48853;SDS011;34673;52.808;17.856;2023-06-10T07:14:13;9.80;;;3.88;;
48853;SDS011;34673;52.808;17.856;2023-06-10T07:16:40;7.07;;;3.58;;
48853;SDS011;34673;52.808;17.856;2023-06-10T07:19:07;9.18;;;3.60;;
48853;SDS011;34673;52.808;17.856;2023-06-10T07:21:35;8.82;;;3.75;;
48853;SDS011;34673;52.808;17.856;2023-06-10T07:24:03;9.05;;;3.50;;
48853;SDS011;34673;52.808;17.856;2023-06-10T07:26:30;8.25;;;3.53;;
48853;SDS011;34673;52.808;17.856;2023-06-10T07:28:58;6.50;;;3.75;;
48853;SDS011;34673;52.808;17.856;2023-06-10T07:31:25;6.45;;;3.40;;
48853;SDS011;34673;52.808;17.856;2023-06-10T07:33:52;8.00;;;3.92;;
48853;SDS011;34673;52.808;17.856;2023-06-10T07:36:19;10.73;;;3.47;;
48853;SDS011;34673;52.808;17.856;2023-06-10T07:38:47;8.68;;;3.67;;
48853;SDS011;34673;52.808;17.856;2023-06-10T07:41:14;8.95;;;3.65;;
48853;SDS011;34673;52.808;17.856;2023-06-10T07:43:44;7.07;;;3.58;;
48853;SDS011;34673;52.808;17.856;2023-06-10T07:46:12;9.27;;;3.80;;
48853;SDS011;34673;52.808;17.856;2023-06-10T07:48:39;6.45;;;3.65;;
48853;SDS011;34673;52.808;17.856;2023-06-10T07:51:06;6.72;;;3.58;;
48853;SDS011;34673;52.808;17.856;2023-06-10T07:53:33;6.38;;;3.38;;
48853;SDS011;34673;52.808;17.856;2023-06-10T07:56:01;9.05;;;3.85;;
48853;SDS011;34673;52.808;17.856;2023-06-10T07:58:28;7.50;;;3.75;;
48853;SDS011;34673;52.808;17.856;2023-06-10T08:00:55;9.20;;;3.72;;
48853;SDS011;34673;52.808;17.856;2023-06-10T08:03:22;7.75;;;3.50;;
48853;SDS011;34673;52.808;17.856;2023-06-10T08:05:50;8.23;;;4.03;;
48853;SDS011;34673;52.808;17.856;2023-06-10T08:08:17;5.55;;;3.30;;
48853;SDS011;34673;52.808;17.856;2023-06-10T08:10:44;9.65;;;3.10;;
48853;SDS011;34673;52.808;17.856;2023-06-10T08:13:11;7.63;;;3.30;;
48853;SDS011;34673;52.808;17.856;2023-06-10T08:15:39;8.85;;;4.00;;
48853;SDS011;34673;52.808;17.856;2023-06-10T08:18:06;9.02;;;3.83;;
48853;SDS011;34673;52.808;17.856;2023-06-10T08:20:33;7.50;;;3.15;;
48853;SDS011;34673;52.808;17.856;2023-06-10T08:23:01;8.00;;;3.50;;
48853;SDS011;34673;52.808;17.856;2023-06-10T08:25:28;9.02;;;3.65;;
48853;SDS011;34673;52.808;17.856;2023-06-10T08:27:55;8.60;;;3.67;;
48853;SDS011;34673;52.808;17.856;2023-06-10T08:30:24;7.72;;;4.00;;
48853;SDS011;34673;52.808;17.856;2023-06-10T08:32:51;6.20;;;3.97;;
48853;SDS011;34673;52.808;17.856;2023-06-10T08:35:18;6.93;;;3.72;;
48853;SDS011;34673;52.808;17.856;2023-06-10T08:37:46;9.00;;;3.70;;
48853;SDS011;34673;52.808;17.856;2023-06-10T08:40:13;8.93;;;3.50;;
48853;SDS011;34673;52.808;17.856;2023-06-10T08:42:43;8.80;;;3.58;;
48853;SDS011;34673;52.808;17.856;2023-06-10T08:45:16;6.13;;;3.20;;
48853;SDS011;34673;52.808;17.856;2023-06-10T08:47:48;12.38;;;3.85;;
48853;SDS011;34673;52.808;17.856;2023-06-10T08:50:21;7.97;;;3.17;;
48853;SDS011;34673;52.808;17.856;2023-06-10T08:52:50;13.05;;;3.47;;
48853;SDS011;34673;52.808;17.856;2023-06-10T08:55:41;7.07;;;3.45;;
48853;SDS011;34673;52.808;17.856;2023-06-10T08:58:09;7.88;;;3.85;;
48853;SDS011;34673;52.808;17.856;2023-06-10T09:00:37;9.18;;;3.10;;
48853;SDS011;34673;52.808;17.856;2023-06-10T09:03:05;7.80;;;3.63;;
48853;SDS011;34673;52.808;17.856;2023-06-10T09:05:35;8.52;;;4.00;;
48853;SDS011;34673;52.808;17.856;2023-06-10T09:08:05;8.68;;;3.25;;
48853;SDS011;34673;52.808;17.856;2023-06-10T09:10:33;5.28;;;3.22;;
48853;SDS011;34673;52.808;17.856;2023-06-10T09:13:01;6.25;;;3.30;;
48853;SDS011;34673;52.808;17.856;2023-06-10T09:15:28;6.22;;;3.40;;
48853;SDS011;34673;52.808;17.856;2023-06-10T09:17:55;8.38;;;3.17;;
48853;SDS011;34673;52.808;17.856;2023-06-10T09:20:23;6.75;;;3.50;;
48853;SDS011;34673;52.808;17.856;2023-06-10T09:22:51;6.70;;;3.22;;
48853;SDS011;34673;52.808;17.856;2023-06-10T09:25:18;13.52;;;3.40;;
48853;SDS011;34673;52.808;17.856;2023-06-10T09:27:46;6.75;;;3.28;;
48853;SDS011;34673;52.808;17.856;2023-06-10T09:30:26;8.52;;;3.35;;
48853;SDS011;34673;52.808;17.856;2023-06-10T09:32:57;10.80;;;3.63;;
48853;SDS011;34673;52.808;17.856;2023-06-10T09:35:26;8.52;;;2.90;;
48853;SDS011;34673;52.808;17.856;2023-06-10T09:37:55;9.63;;;3.73;;
48853;SDS011;34673;52.808;17.856;2023-06-10T09:40:24;7.90;;;2.70;;
48853;SDS011;34673;52.808;17.856;2023-06-10T09:42:55;6.35;;;3.30;;
48853;SDS011;34673;52.808;17.856;2023-06-10T09:45:24;7.85;;;3.15;;
48853;SDS011;34673;52.808;17.856;2023-06-10T09:47:57;8.82;;;3.03;;
48853;SDS011;34673;52.808;17.856;2023-06-10T09:50:24;8.02;;;3.60;;
48853;SDS011;34673;52.808;17.856;2023-06-10T09:52:52;14.90;;;3.30;;
48853;SDS011;34673;52.808;17.856;2023-06-10T09:55:19;8.93;;;3.30;;
48853;SDS011;34673;52.808;17.856;2023-06-10T09:57:48;5.28;;;3.30;;
48853;SDS011;34673;52.808;17.856;2023-06-10T10:00:16;6.53;;;3.17;;
48853;SDS011;34673;52.808;17.856;2023-06-10T10:02:47;9.45;;;3.35;;
48853;SDS011;34673;52.808;17.856;2023-06-10T10:05:17;6.03;;;3.25;;
48853;SDS011;34673;52.808;17.856;2023-06-10T10:07:48;5.95;;;3.10;;
48853;SDS011;34673;52.808;17.856;2023-06-10T10:10:17;6.70;;;3.28;;
48853;SDS011;34673;52.808;17.856;2023-06-10T10:12:46;8.77;;;3.38;;
48853;SDS011;34673;52.808;17.856;2023-06-10T10:15:15;7.18;;;3.45;;
48853;SDS011;34673;52.808;17.856;2023-06-10T10:20:15;7.72;;;3.10;;
48853;SDS011;34673;52.808;17.856;2023-06-10T10:22:47;9.65;;;3.20;;
48853;SDS011;34673;52.808;17.856;2023-06-10T10:25:17;6.47;;;3.05;;
48853;SDS011;34673;52.808;17.856;2023-06-10T10:27:51;7.03;;;2.85;;
48853;SDS011;34673;52.808;17.856;2023-06-10T10:30:22;6.85;;;3.03;;
48853;SDS011;34673;52.808;17.856;2023-06-10T10:32:58;9.23;;;3.25;;
48853;SDS011;34673;52.808;17.856;2023-06-10T10:35:35;5.82;;;2.95;;
48853;SDS011;34673;52.808;17.856;2023-06-10T10:38:04;5.07;;;2.90;;
48853;SDS011;34673;52.808;17.856;2023-06-10T10:40:33;7.55;;;3.30;;
48853;SDS011;34673;52.808;17.856;2023-06-10T10:43:01;8.70;;;3.20;;
48853;SDS011;34673;52.808;17.856;2023-06-10T10:45:29;5.95;;;3.03;;
48853;SDS011;34673;52.808;17.856;2023-06-10T10:47:56;10.35;;;2.90;;
48853;SDS011;34673;52.808;17.856;2023-06-10T10:50:24;7.13;;;3.17;;
48853;SDS011;34673;52.808;17.856;2023-06-10T10:53:01;9.63;;;2.85;;
48853;SDS011;34673;52.808;17.856;2023-06-10T10:55:30;7.85;;;3.50;;
48853;SDS011;34673;52.808;17.856;2023-06-10T10:58:05;7.43;;;3.03;;
48853;SDS011;34673;52.808;17.856;2023-06-10T11:00:34;7.03;;;3.10;;
48853;SDS011;34673;52.808;17.856;2023-06-10T11:08:08;7.05;;;3.22;;
48853;SDS011;34673;52.808;17.856;2023-06-10T11:10:40;7.55;;;2.83;;
48853;SDS011;34673;52.808;17.856;2023-06-10T11:13:18;9.00;;;3.05;;
48853;SDS011;34673;52.808;17.856;2023-06-10T11:21:05;13.18;;;3.38;;
48853;SDS011;34673;52.808;17.856;2023-06-10T11:23:33;9.55;;;2.80;;
48853;SDS011;34673;52.808;17.856;2023-06-10T11:26:11;8.35;;;3.05;;
48853;SDS011;34673;52.808;17.856;2023-06-10T11:28:42;5.10;;;2.67;;
48853;SDS011;34673;52.808;17.856;2023-06-10T11:31:29;6.65;;;2.90;;
48853;SDS011;34673;52.808;17.856;2023-06-10T11:34:04;5.28;;;2.70;;
48853;SDS011;34673;52.808;17.856;2023-06-10T11:36:33;7.10;;;2.60;;
48853;SDS011;34673;52.808;17.856;2023-06-10T11:39:04;7.93;;;2.72;;
48853;SDS011;34673;52.808;17.856;2023-06-10T11:41:33;9.27;;;3.10;;
48853;SDS011;34673;52.808;17.856;2023-06-10T11:44:02;8.20;;;2.97;;
48853;SDS011;34673;52.808;17.856;2023-06-10T11:46:31;7.43;;;2.78;;
48853;SDS011;34673;52.808;17.856;2023-06-10T11:49:01;6.35;;;3.00;;
48853;SDS011;34673;52.808;17.856;2023-06-10T11:51:33;6.45;;;3.08;;
48853;SDS011;34673;52.808;17.856;2023-06-10T11:54:05;5.40;;;2.92;;
48853;SDS011;34673;52.808;17.856;2023-06-10T11:56:35;6.88;;;2.63;;
48853;SDS011;34673;52.808;17.856;2023-06-10T11:59:03;7.88;;;2.85;;
48853;SDS011;34673;52.808;17.856;2023-06-10T12:01:35;7.70;;;3.08;;
48853;SDS011;34673;52.808;17.856;2023-06-10T12:04:10;4.22;;;2.67;;
48853;SDS011;34673;52.808;17.856;2023-06-10T12:09:24;6.32;;;2.78;;
48853;SDS011;34673;52.808;17.856;2023-06-10T12:12:02;7.15;;;2.90;;
48853;SDS011;34673;52.808;17.856;2023-06-10T12:20:02;6.40;;;2.70;;
48853;SDS011;34673;52.808;17.856;2023-06-10T12:22:38;5.60;;;2.72;;
48853;SDS011;34673;52.808;17.856;2023-06-10T12:25:07;4.72;;;2.63;;
48853;SDS011;34673;52.808;17.856;2023-06-10T12:30:05;5.20;;;2.38;;
48853;SDS011;34673;52.808;17.856;2023-06-10T12:32:36;7.57;;;2.90;;
48853;SDS011;34673;52.808;17.856;2023-06-10T12:35:04;4.88;;;2.70;;
48853;SDS011;34673;52.808;17.856;2023-06-10T12:37:32;9.83;;;2.97;;
48853;SDS011;34673;52.808;17.856;2023-06-10T12:40:07;8.38;;;2.60;;
48853;SDS011;34673;52.808;17.856;2023-06-10T12:42:36;5.32;;;2.33;;
48853;SDS011;34673;52.808;17.856;2023-06-10T12:45:05;7.43;;;2.80;;
48853;SDS011;34673;52.808;17.856;2023-06-10T12:47:36;6.15;;;2.30;;
48853;SDS011;34673;52.808;17.856;2023-06-10T12:50:05;6.50;;;2.40;;
48853;SDS011;34673;52.808;17.856;2023-06-10T12:52:33;4.72;;;2.33;;
48853;SDS011;34673;52.808;17.856;2023-06-10T12:55:00;6.80;;;2.40;;
48853;SDS011;34673;52.808;17.856;2023-06-10T12:57:28;8.57;;;3.10;;
48853;SDS011;34673;52.808;17.856;2023-06-10T12:59:56;5.85;;;2.42;;
48853;SDS011;34673;52.808;17.856;2023-06-10T13:02:31;6.03;;;2.80;;
48853;SDS011;34673;52.808;17.856;2023-06-10T13:04:58;4.30;;;2.30;;
48853;SDS011;34673;52.808;17.856;2023-06-10T13:07:25;6.00;;;2.67;;
48853;SDS011;34673;52.808;17.856;2023-06-10T13:09:53;4.97;;;2.42;;
48853;SDS011;34673;52.808;17.856;2023-06-10T13:12:20;5.38;;;2.67;;
48853;SDS011;34673;52.808;17.856;2023-06-10T13:15:03;5.75;;;2.30;;
48853;SDS011;34673;52.808;17.856;2023-06-10T13:17:31;8.55;;;3.60;;
48853;SDS011;34673;52.808;17.856;2023-06-10T13:20:02;4.73;;;2.20;;
48853;SDS011;34673;52.808;17.856;2023-06-10T13:22:32;5.10;;;2.10;;
48853;SDS011;34673;52.808;17.856;2023-06-10T13:25:04;5.03;;;2.42;;
48853;SDS011;34673;52.808;17.856;2023-06-10T13:27:35;3.58;;;2.03;;
48853;SDS011;34673;52.808;17.856;2023-06-10T13:30:06;4.30;;;2.30;;
48853;SDS011;34673;52.808;17.856;2023-06-10T13:32:34;8.80;;;2.45;;
48853;SDS011;34673;52.808;17.856;2023-06-10T13:35:02;5.38;;;2.60;;
48853;SDS011;34673;52.808;17.856;2023-06-10T13:37:30;5.20;;;2.20;;
48853;SDS011;34673;52.808;17.856;2023-06-10T13:40:00;7.50;;;2.20;;
48853;SDS011;34673;52.808;17.856;2023-06-10T13:42:29;3.65;;;2.47;;
48853;SDS011;34673;52.808;17.856;2023-06-10T13:44:56;7.18;;;2.50;;
48853;SDS011;34673;52.808;17.856;2023-06-10T13:47:23;4.10;;;2.10;;
48853;SDS011;34673;52.808;17.856;2023-06-10T13:49:52;6.45;;;2.72;;
48853;SDS011;34673;52.808;17.856;2023-06-10T13:52:19;5.22;;;2.08;;
48853;SDS011;34673;52.808;17.856;2023-06-10T13:54:46;9.57;;;2.58;;
48853;SDS011;34673;52.808;17.856;2023-06-10T13:57:13;16.85;;;2.95;;
48853;SDS011;34673;52.808;17.856;2023-06-10T13:59:41;8.02;;;2.20;;
48853;SDS011;34673;52.808;17.856;2023-06-10T14:02:08;9.68;;;2.25;;
48853;SDS011;34673;52.808;17.856;2023-06-10T14:04:36;5.43;;;2.15;;
48853;SDS011;34673;52.808;17.856;2023-06-10T14:07:03;3.88;;;2.28;;
48853;SDS011;34673;52.808;17.856;2023-06-10T14:09:30;10.25;;;2.40;;
48853;SDS011;34673;52.808;17.856;2023-06-10T14:11:57;4.20;;;2.05;;
48853;SDS011;34673;52.808;17.856;2023-06-10T14:14:25;8.18;;;2.40;;
48853;SDS011;34673;52.808;17.856;2023-06-10T14:16:52;7.30;;;2.60;;
48853;SDS011;34673;52.808;17.856;2023-06-10T14:19:19;5.05;;;2.28;;
48853;SDS011;34673;52.808;17.856;2023-06-10T14:21:46;7.20;;;2.63;;
48853;SDS011;34673;52.808;17.856;2023-06-10T14:24:14;4.60;;;1.98;;
48853;SDS011;34673;52.808;17.856;2023-06-10T14:26:42;5.53;;;2.58;;
48853;SDS011;34673;52.808;17.856;2023-06-10T14:29:09;7.05;;;2.40;;
48853;SDS011;34673;52.808;17.856;2023-06-10T14:31:36;11.98;;;2.63;;
48853;SDS011;34673;52.808;17.856;2023-06-10T14:34:03;4.78;;;2.00;;
48853;SDS011;34673;52.808;17.856;2023-06-10T14:36:33;5.20;;;2.13;;
48853;SDS011;34673;52.808;17.856;2023-06-10T14:39:01;5.60;;;2.35;;
48853;SDS011;34673;52.808;17.856;2023-06-10T14:41:29;6.25;;;1.80;;
48853;SDS011;34673;52.808;17.856;2023-06-10T14:43:56;7.68;;;2.40;;
48853;SDS011;34673;52.808;17.856;2023-06-10T14:46:23;4.72;;;2.10;;
48853;SDS011;34673;52.808;17.856;2023-06-10T14:48:50;7.70;;;2.40;;
48853;SDS011;34673;52.808;17.856;2023-06-10T14:51:17;3.38;;;1.80;;
48853;SDS011;34673;52.808;17.856;2023-06-10T14:53:45;10.40;;;2.25;;
48853;SDS011;34673;52.808;17.856;2023-06-10T14:56:12;3.90;;;1.70;;
48853;SDS011;34673;52.808;17.856;2023-06-10T14:58:39;3.42;;;2.05;;
48853;SDS011;34673;52.808;17.856;2023-06-10T15:01:06;5.78;;;2.30;;
48853;SDS011;34673;52.808;17.856;2023-06-10T15:03:34;7.35;;;2.17;;
48853;SDS011;34673;52.808;17.856;2023-06-10T15:06:01;7.05;;;2.13;;
48853;SDS011;34673;52.808;17.856;2023-06-10T15:08:28;5.10;;;2.20;;